<?xml version="1.0" encoding="UTF-8" standalone="no" ?>
<gpx xmlns="http://www.topografix.com/GPX/1/1" xmlns:xsi="http://www.w3.org/2001/XMLSchema-instance" xsi:schemaLocation="http://www.topografix.com/GPX/1/1 http://www.topografix.com/GPX/1/1/gpx.xsd" version="1.1" creator="VisuGPX - https://www.visugpx.com">
  <metadata>
    <name>rando Magny-Chars (95) 22 km</name>
    <desc><![CDATA[Rando facile de 22 km entre Magny en Vexin et Chars - 
Accès à Magny depuis Paris par le RER A et Baladobus local (4%u20AC). Grandes plaines agricoles, peu de forêts, jolis villages, églises et prieurés sur le parcours.
a retrouver sur aussi sur [url]http://trekkingzone.wordpress.com[/url]]]></desc>
  </metadata>
  <trk>
    <name><![CDATA[27 août 2017 à 11:04:39]]></name>
    <cmt><![CDATA[27 août 2017 à 11:04:39]]></cmt>
    <trkseg>
      <trkpt lat="49.15488" lon="1.7905">
        <ele>77</ele>
        <time>2017-08-27T09:04:57Z</time>
      </trkpt>
      <trkpt lat="49.15502" lon="1.79022">
        <ele>85</ele>
        <time>2017-08-27T09:08:58Z</time>
      </trkpt>
      <trkpt lat="49.15522" lon="1.79005">
        <ele>87</ele>
        <time>2017-08-27T09:09:14Z</time>
      </trkpt>
      <trkpt lat="49.15558" lon="1.7896">
        <ele>81</ele>
        <time>2017-08-27T09:09:54Z</time>
      </trkpt>
      <trkpt lat="49.15595" lon="1.78916">
        <ele>80</ele>
        <time>2017-08-27T09:10:33Z</time>
      </trkpt>
      <trkpt lat="49.15601" lon="1.78879">
        <ele>80</ele>
        <time>2017-08-27T09:10:52Z</time>
      </trkpt>
      <trkpt lat="49.15585" lon="1.78853">
        <ele>80</ele>
        <time>2017-08-27T09:11:14Z</time>
      </trkpt>
      <trkpt lat="49.15567" lon="1.7883">
        <ele>80</ele>
        <time>2017-08-27T09:11:29Z</time>
      </trkpt>
      <trkpt lat="49.15555" lon="1.78801">
        <ele>80</ele>
        <time>2017-08-27T09:11:44Z</time>
      </trkpt>
      <trkpt lat="49.15563" lon="1.78768">
        <ele>80</ele>
        <time>2017-08-27T09:12:02Z</time>
      </trkpt>
      <trkpt lat="49.15575" lon="1.78738">
        <ele>80</ele>
        <time>2017-08-27T09:12:20Z</time>
      </trkpt>
      <trkpt lat="49.1557" lon="1.78703">
        <ele>79</ele>
        <time>2017-08-27T09:12:34Z</time>
      </trkpt>
      <trkpt lat="49.1559" lon="1.78687">
        <ele>78</ele>
        <time>2017-08-27T09:13:04Z</time>
      </trkpt>
      <trkpt lat="49.1561" lon="1.7868">
        <ele>77</ele>
        <time>2017-08-27T09:13:22Z</time>
      </trkpt>
      <trkpt lat="49.15624" lon="1.78652">
        <ele>76</ele>
        <time>2017-08-27T09:14:02Z</time>
      </trkpt>
      <trkpt lat="49.15645" lon="1.78668">
        <ele>75</ele>
        <time>2017-08-27T09:14:51Z</time>
      </trkpt>
      <trkpt lat="49.15669" lon="1.78669">
        <ele>73</ele>
        <time>2017-08-27T09:15:09Z</time>
      </trkpt>
      <trkpt lat="49.15688" lon="1.78689">
        <ele>72</ele>
        <time>2017-08-27T09:15:24Z</time>
      </trkpt>
      <trkpt lat="49.15711" lon="1.78687">
        <ele>72</ele>
        <time>2017-08-27T09:15:38Z</time>
      </trkpt>
      <trkpt lat="49.15721" lon="1.78718">
        <ele>71</ele>
        <time>2017-08-27T09:16:12Z</time>
      </trkpt>
      <trkpt lat="49.1571" lon="1.78787">
        <ele>71</ele>
        <time>2017-08-27T09:16:47Z</time>
      </trkpt>
      <trkpt lat="49.15697" lon="1.78818">
        <ele>71</ele>
        <time>2017-08-27T09:17:01Z</time>
      </trkpt>
      <trkpt lat="49.15659" lon="1.78859">
        <ele>73</ele>
        <time>2017-08-27T09:17:33Z</time>
      </trkpt>
      <trkpt lat="49.15621" lon="1.78901">
        <ele>76</ele>
        <time>2017-08-27T09:18:11Z</time>
      </trkpt>
      <trkpt lat="49.15616" lon="1.78972">
        <ele>78</ele>
        <time>2017-08-27T09:18:49Z</time>
      </trkpt>
      <trkpt lat="49.15649" lon="1.7902">
        <ele>78</ele>
        <time>2017-08-27T09:19:24Z</time>
      </trkpt>
      <trkpt lat="49.15678" lon="1.79073">
        <ele>78</ele>
        <time>2017-08-27T09:19:55Z</time>
      </trkpt>
      <trkpt lat="49.157" lon="1.79133">
        <ele>77</ele>
        <time>2017-08-27T09:20:29Z</time>
      </trkpt>
      <trkpt lat="49.15724" lon="1.7914">
        <ele>76</ele>
        <time>2017-08-27T09:20:44Z</time>
      </trkpt>
      <trkpt lat="49.15752" lon="1.79194">
        <ele>76</ele>
        <time>2017-08-27T09:21:14Z</time>
      </trkpt>
      <trkpt lat="49.15781" lon="1.79248">
        <ele>76</ele>
        <time>2017-08-27T09:21:56Z</time>
      </trkpt>
      <trkpt lat="49.15822" lon="1.79285">
        <ele>75</ele>
        <time>2017-08-27T09:22:29Z</time>
      </trkpt>
      <trkpt lat="49.15825" lon="1.79321">
        <ele>75</ele>
        <time>2017-08-27T09:22:44Z</time>
      </trkpt>
      <trkpt lat="49.1581" lon="1.79389">
        <ele>76</ele>
        <time>2017-08-27T09:23:14Z</time>
      </trkpt>
      <trkpt lat="49.1579" lon="1.79453">
        <ele>76</ele>
        <time>2017-08-27T09:23:50Z</time>
      </trkpt>
      <trkpt lat="49.15766" lon="1.79504">
        <ele>76</ele>
        <time>2017-08-27T09:24:21Z</time>
      </trkpt>
      <trkpt lat="49.15743" lon="1.79564">
        <ele>77</ele>
        <time>2017-08-27T09:25:00Z</time>
      </trkpt>
      <trkpt lat="49.15722" lon="1.79625">
        <ele>78</ele>
        <time>2017-08-27T09:25:34Z</time>
      </trkpt>
      <trkpt lat="49.15698" lon="1.79687">
        <ele>78</ele>
        <time>2017-08-27T09:26:09Z</time>
      </trkpt>
      <trkpt lat="49.15667" lon="1.7974">
        <ele>79</ele>
        <time>2017-08-27T09:26:38Z</time>
      </trkpt>
      <trkpt lat="49.15657" lon="1.79771">
        <ele>79</ele>
        <time>2017-08-27T09:26:53Z</time>
      </trkpt>
      <trkpt lat="49.15629" lon="1.79827">
        <ele>79</ele>
        <time>2017-08-27T09:27:33Z</time>
      </trkpt>
      <trkpt lat="49.1562" lon="1.79861">
        <ele>79</ele>
        <time>2017-08-27T09:27:48Z</time>
      </trkpt>
      <trkpt lat="49.15592" lon="1.79916">
        <ele>80</ele>
        <time>2017-08-27T09:28:21Z</time>
      </trkpt>
      <trkpt lat="49.15565" lon="1.79977">
        <ele>80</ele>
        <time>2017-08-27T09:28:50Z</time>
      </trkpt>
      <trkpt lat="49.15558" lon="1.80012">
        <ele>79</ele>
        <time>2017-08-27T09:29:13Z</time>
      </trkpt>
      <trkpt lat="49.15556" lon="1.80049">
        <ele>79</ele>
        <time>2017-08-27T09:29:32Z</time>
      </trkpt>
      <trkpt lat="49.15564" lon="1.80119">
        <ele>80</ele>
        <time>2017-08-27T09:30:07Z</time>
      </trkpt>
      <trkpt lat="49.15579" lon="1.80147">
        <ele>80</ele>
        <time>2017-08-27T09:30:24Z</time>
      </trkpt>
      <trkpt lat="49.15597" lon="1.80168">
        <ele>81</ele>
        <time>2017-08-27T09:30:46Z</time>
      </trkpt>
      <trkpt lat="49.1563" lon="1.80217">
        <ele>83</ele>
        <time>2017-08-27T09:31:25Z</time>
      </trkpt>
      <trkpt lat="49.15641" lon="1.80249">
        <ele>84</ele>
        <time>2017-08-27T09:31:41Z</time>
      </trkpt>
      <trkpt lat="49.15672" lon="1.80302">
        <ele>87</ele>
        <time>2017-08-27T09:32:16Z</time>
      </trkpt>
      <trkpt lat="49.15704" lon="1.80354">
        <ele>89</ele>
        <time>2017-08-27T09:32:51Z</time>
      </trkpt>
      <trkpt lat="49.15725" lon="1.80416">
        <ele>91</ele>
        <time>2017-08-27T09:33:27Z</time>
      </trkpt>
      <trkpt lat="49.15749" lon="1.80479">
        <ele>91</ele>
        <time>2017-08-27T09:34:03Z</time>
      </trkpt>
      <trkpt lat="49.15771" lon="1.80543">
        <ele>92</ele>
        <time>2017-08-27T09:34:35Z</time>
      </trkpt>
      <trkpt lat="49.15795" lon="1.80606">
        <ele>92</ele>
        <time>2017-08-27T09:35:10Z</time>
      </trkpt>
      <trkpt lat="49.15818" lon="1.80667">
        <ele>92</ele>
        <time>2017-08-27T09:35:43Z</time>
      </trkpt>
      <trkpt lat="49.15834" lon="1.80733">
        <ele>91</ele>
        <time>2017-08-27T09:36:19Z</time>
      </trkpt>
      <trkpt lat="49.15846" lon="1.80765">
        <ele>91</ele>
        <time>2017-08-27T09:36:35Z</time>
      </trkpt>
      <trkpt lat="49.15873" lon="1.80822">
        <ele>92</ele>
        <time>2017-08-27T09:37:09Z</time>
      </trkpt>
      <trkpt lat="49.15888" lon="1.8085">
        <ele>92</ele>
        <time>2017-08-27T09:37:25Z</time>
      </trkpt>
      <trkpt lat="49.15911" lon="1.80915">
        <ele>91</ele>
        <time>2017-08-27T09:38:05Z</time>
      </trkpt>
      <trkpt lat="49.15916" lon="1.80948">
        <ele>90</ele>
        <time>2017-08-27T09:38:21Z</time>
      </trkpt>
      <trkpt lat="49.15915" lon="1.8102">
        <ele>90</ele>
        <time>2017-08-27T09:38:57Z</time>
      </trkpt>
      <trkpt lat="49.15927" lon="1.8105">
        <ele>89</ele>
        <time>2017-08-27T09:39:11Z</time>
      </trkpt>
      <trkpt lat="49.1592" lon="1.81083">
        <ele>89</ele>
        <time>2017-08-27T09:39:27Z</time>
      </trkpt>
      <trkpt lat="49.15927" lon="1.81153">
        <ele>89</ele>
        <time>2017-08-27T09:40:00Z</time>
      </trkpt>
      <trkpt lat="49.15931" lon="1.81188">
        <ele>89</ele>
        <time>2017-08-27T09:40:17Z</time>
      </trkpt>
      <trkpt lat="49.15924" lon="1.81221">
        <ele>89</ele>
        <time>2017-08-27T09:40:31Z</time>
      </trkpt>
      <trkpt lat="49.15928" lon="1.81255">
        <ele>89</ele>
        <time>2017-08-27T09:40:45Z</time>
      </trkpt>
      <trkpt lat="49.15947" lon="1.81321">
        <ele>90</ele>
        <time>2017-08-27T09:41:20Z</time>
      </trkpt>
      <trkpt lat="49.15964" lon="1.81346">
        <ele>90</ele>
        <time>2017-08-27T09:41:33Z</time>
      </trkpt>
      <trkpt lat="49.15973" lon="1.81378">
        <ele>91</ele>
        <time>2017-08-27T09:41:57Z</time>
      </trkpt>
      <trkpt lat="49.15985" lon="1.81402">
        <ele>92</ele>
        <time>2017-08-27T09:43:55Z</time>
      </trkpt>
      <trkpt lat="49.15999" lon="1.81431">
        <ele>91</ele>
        <time>2017-08-27T09:48:59Z</time>
      </trkpt>
      <trkpt lat="49.16014" lon="1.81457">
        <ele>94</ele>
        <time>2017-08-27T09:49:23Z</time>
      </trkpt>
      <trkpt lat="49.16044" lon="1.81514">
        <ele>95</ele>
        <time>2017-08-27T09:49:58Z</time>
      </trkpt>
      <trkpt lat="49.16061" lon="1.8158">
        <ele>95</ele>
        <time>2017-08-27T09:50:30Z</time>
      </trkpt>
      <trkpt lat="49.16098" lon="1.81671">
        <ele>96</ele>
        <time>2017-08-27T09:51:16Z</time>
      </trkpt>
      <trkpt lat="49.1611" lon="1.81701">
        <ele>96</ele>
        <time>2017-08-27T09:51:32Z</time>
      </trkpt>
      <trkpt lat="49.1611" lon="1.81737">
        <ele>96</ele>
        <time>2017-08-27T09:51:53Z</time>
      </trkpt>
      <trkpt lat="49.16127" lon="1.8176">
        <ele>97</ele>
        <time>2017-08-27T09:52:06Z</time>
      </trkpt>
      <trkpt lat="49.16139" lon="1.8179">
        <ele>97</ele>
        <time>2017-08-27T09:52:20Z</time>
      </trkpt>
      <trkpt lat="49.16145" lon="1.81825">
        <ele>97</ele>
        <time>2017-08-27T09:52:36Z</time>
      </trkpt>
      <trkpt lat="49.16145" lon="1.81894">
        <ele>97</ele>
        <time>2017-08-27T09:53:08Z</time>
      </trkpt>
      <trkpt lat="49.16132" lon="1.81963">
        <ele>97</ele>
        <time>2017-08-27T09:53:39Z</time>
      </trkpt>
      <trkpt lat="49.16125" lon="1.82032">
        <ele>97</ele>
        <time>2017-08-27T09:54:09Z</time>
      </trkpt>
      <trkpt lat="49.16125" lon="1.82068">
        <ele>98</ele>
        <time>2017-08-27T09:54:27Z</time>
      </trkpt>
      <trkpt lat="49.16143" lon="1.82134">
        <ele>98</ele>
        <time>2017-08-27T09:55:01Z</time>
      </trkpt>
      <trkpt lat="49.16148" lon="1.8217">
        <ele>98</ele>
        <time>2017-08-27T09:55:17Z</time>
      </trkpt>
      <trkpt lat="49.1616" lon="1.82236">
        <ele>98</ele>
        <time>2017-08-27T09:55:51Z</time>
      </trkpt>
      <trkpt lat="49.16171" lon="1.82268">
        <ele>99</ele>
        <time>2017-08-27T09:56:05Z</time>
      </trkpt>
      <trkpt lat="49.16176" lon="1.82304">
        <ele>99</ele>
        <time>2017-08-27T09:56:24Z</time>
      </trkpt>
      <trkpt lat="49.16179" lon="1.82338">
        <ele>99</ele>
        <time>2017-08-27T09:56:38Z</time>
      </trkpt>
      <trkpt lat="49.16189" lon="1.8237">
        <ele>99</ele>
        <time>2017-08-27T09:56:54Z</time>
      </trkpt>
      <trkpt lat="49.16198" lon="1.82441">
        <ele>98</ele>
        <time>2017-08-27T09:57:26Z</time>
      </trkpt>
      <trkpt lat="49.16194" lon="1.82511">
        <ele>96</ele>
        <time>2017-08-27T09:58:01Z</time>
      </trkpt>
      <trkpt lat="49.16178" lon="1.82538">
        <ele>95</ele>
        <time>2017-08-27T09:58:15Z</time>
      </trkpt>
      <trkpt lat="49.16176" lon="1.82574">
        <ele>94</ele>
        <time>2017-08-27T09:58:33Z</time>
      </trkpt>
      <trkpt lat="49.1618" lon="1.82609">
        <ele>93</ele>
        <time>2017-08-27T09:58:50Z</time>
      </trkpt>
      <trkpt lat="49.16195" lon="1.82676">
        <ele>93</ele>
        <time>2017-08-27T09:59:31Z</time>
      </trkpt>
      <trkpt lat="49.16199" lon="1.82747">
        <ele>93</ele>
        <time>2017-08-27T10:00:04Z</time>
      </trkpt>
      <trkpt lat="49.16208" lon="1.82815">
        <ele>93</ele>
        <time>2017-08-27T10:00:39Z</time>
      </trkpt>
      <trkpt lat="49.16224" lon="1.82919">
        <ele>94</ele>
        <time>2017-08-27T10:01:20Z</time>
      </trkpt>
      <trkpt lat="49.16237" lon="1.82948">
        <ele>94</ele>
        <time>2017-08-27T10:01:34Z</time>
      </trkpt>
      <trkpt lat="49.1623" lon="1.82981">
        <ele>93</ele>
        <time>2017-08-27T10:01:52Z</time>
      </trkpt>
      <trkpt lat="49.16213" lon="1.83005">
        <ele>93</ele>
        <time>2017-08-27T10:02:07Z</time>
      </trkpt>
      <trkpt lat="49.16171" lon="1.83035">
        <ele>92</ele>
        <time>2017-08-27T10:02:35Z</time>
      </trkpt>
      <trkpt lat="49.16141" lon="1.83091">
        <ele>91</ele>
        <time>2017-08-27T10:03:11Z</time>
      </trkpt>
      <trkpt lat="49.16141" lon="1.83126">
        <ele>91</ele>
        <time>2017-08-27T10:03:30Z</time>
      </trkpt>
      <trkpt lat="49.1616" lon="1.83189">
        <ele>90</ele>
        <time>2017-08-27T10:04:10Z</time>
      </trkpt>
      <trkpt lat="49.16182" lon="1.8329">
        <ele>88</ele>
        <time>2017-08-27T10:04:55Z</time>
      </trkpt>
      <trkpt lat="49.16184" lon="1.83325">
        <ele>87</ele>
        <time>2017-08-27T10:05:12Z</time>
      </trkpt>
      <trkpt lat="49.16198" lon="1.83393">
        <ele>86</ele>
        <time>2017-08-27T10:05:45Z</time>
      </trkpt>
      <trkpt lat="49.16201" lon="1.83429">
        <ele>85</ele>
        <time>2017-08-27T10:06:03Z</time>
      </trkpt>
      <trkpt lat="49.16202" lon="1.83497">
        <ele>84</ele>
        <time>2017-08-27T10:06:54Z</time>
      </trkpt>
      <trkpt lat="49.16209" lon="1.83548">
        <ele>82</ele>
        <time>2017-08-27T10:07:30Z</time>
      </trkpt>
      <trkpt lat="49.16217" lon="1.8358">
        <ele>78</ele>
        <time>2017-08-27T10:08:57Z</time>
      </trkpt>
      <trkpt lat="49.16204" lon="1.83551">
        <ele>79</ele>
        <time>2017-08-27T10:09:55Z</time>
      </trkpt>
      <trkpt lat="49.162" lon="1.83481">
        <ele>78</ele>
        <time>2017-08-27T10:10:28Z</time>
      </trkpt>
      <trkpt lat="49.16236" lon="1.83437">
        <ele>77</ele>
        <time>2017-08-27T10:11:00Z</time>
      </trkpt>
      <trkpt lat="49.16277" lon="1.83403">
        <ele>77</ele>
        <time>2017-08-27T10:11:33Z</time>
      </trkpt>
      <trkpt lat="49.16293" lon="1.83377">
        <ele>77</ele>
        <time>2017-08-27T10:11:53Z</time>
      </trkpt>
      <trkpt lat="49.16302" lon="1.83345">
        <ele>77</ele>
        <time>2017-08-27T10:12:18Z</time>
      </trkpt>
      <trkpt lat="49.16322" lon="1.83327">
        <ele>77</ele>
        <time>2017-08-27T10:12:54Z</time>
      </trkpt>
      <trkpt lat="49.16368" lon="1.83333">
        <ele>77</ele>
        <time>2017-08-27T10:13:21Z</time>
      </trkpt>
      <trkpt lat="49.1639" lon="1.83328">
        <ele>77</ele>
        <time>2017-08-27T10:13:43Z</time>
      </trkpt>
      <trkpt lat="49.16413" lon="1.83338">
        <ele>78</ele>
        <time>2017-08-27T10:13:57Z</time>
      </trkpt>
      <trkpt lat="49.16453" lon="1.83374">
        <ele>78</ele>
        <time>2017-08-27T10:14:34Z</time>
      </trkpt>
      <trkpt lat="49.16476" lon="1.83382">
        <ele>78</ele>
        <time>2017-08-27T10:14:57Z</time>
      </trkpt>
      <trkpt lat="49.16518" lon="1.8342">
        <ele>78</ele>
        <time>2017-08-27T10:15:28Z</time>
      </trkpt>
      <trkpt lat="49.16555" lon="1.8346">
        <ele>79</ele>
        <time>2017-08-27T10:16:05Z</time>
      </trkpt>
      <trkpt lat="49.16589" lon="1.83508">
        <ele>80</ele>
        <time>2017-08-27T10:16:37Z</time>
      </trkpt>
      <trkpt lat="49.16612" lon="1.83511">
        <ele>80</ele>
        <time>2017-08-27T10:16:58Z</time>
      </trkpt>
      <trkpt lat="49.16633" lon="1.83522">
        <ele>81</ele>
        <time>2017-08-27T10:17:18Z</time>
      </trkpt>
      <trkpt lat="49.16656" lon="1.83521">
        <ele>81</ele>
        <time>2017-08-27T10:17:45Z</time>
      </trkpt>
      <trkpt lat="49.16679" lon="1.83513">
        <ele>82</ele>
        <time>2017-08-27T10:17:55Z</time>
      </trkpt>
      <trkpt lat="49.16701" lon="1.83506">
        <ele>82</ele>
        <time>2017-08-27T10:18:14Z</time>
      </trkpt>
      <trkpt lat="49.16744" lon="1.83526">
        <ele>83</ele>
        <time>2017-08-27T10:18:45Z</time>
      </trkpt>
      <trkpt lat="49.16767" lon="1.83531">
        <ele>83</ele>
        <time>2017-08-27T10:18:59Z</time>
      </trkpt>
      <trkpt lat="49.16789" lon="1.83543">
        <ele>84</ele>
        <time>2017-08-27T10:19:30Z</time>
      </trkpt>
      <trkpt lat="49.16809" lon="1.8356">
        <ele>84</ele>
        <time>2017-08-27T10:19:41Z</time>
      </trkpt>
      <trkpt lat="49.16832" lon="1.83563">
        <ele>84</ele>
        <time>2017-08-27T10:19:59Z</time>
      </trkpt>
      <trkpt lat="49.16856" lon="1.83558">
        <ele>84</ele>
        <time>2017-08-27T10:20:16Z</time>
      </trkpt>
      <trkpt lat="49.16878" lon="1.8357">
        <ele>85</ele>
        <time>2017-08-27T10:20:30Z</time>
      </trkpt>
      <trkpt lat="49.16924" lon="1.83579">
        <ele>86</ele>
        <time>2017-08-27T10:21:08Z</time>
      </trkpt>
      <trkpt lat="49.16948" lon="1.83579">
        <ele>86</ele>
        <time>2017-08-27T10:21:23Z</time>
      </trkpt>
      <trkpt lat="49.16996" lon="1.83593">
        <ele>87</ele>
        <time>2017-08-27T10:22:00Z</time>
      </trkpt>
      <trkpt lat="49.17037" lon="1.83631">
        <ele>89</ele>
        <time>2017-08-27T10:22:46Z</time>
      </trkpt>
      <trkpt lat="49.17055" lon="1.83652">
        <ele>89</ele>
        <time>2017-08-27T10:22:56Z</time>
      </trkpt>
      <trkpt lat="49.17096" lon="1.83686">
        <ele>90</ele>
        <time>2017-08-27T10:23:34Z</time>
      </trkpt>
      <trkpt lat="49.17117" lon="1.83704">
        <ele>91</ele>
        <time>2017-08-27T10:23:50Z</time>
      </trkpt>
      <trkpt lat="49.17137" lon="1.8372">
        <ele>91</ele>
        <time>2017-08-27T10:24:20Z</time>
      </trkpt>
      <trkpt lat="49.17178" lon="1.8375">
        <ele>91</ele>
        <time>2017-08-27T10:24:54Z</time>
      </trkpt>
      <trkpt lat="49.17222" lon="1.83769">
        <ele>92</ele>
        <time>2017-08-27T10:25:17Z</time>
      </trkpt>
      <trkpt lat="49.17267" lon="1.83771">
        <ele>92</ele>
        <time>2017-08-27T10:25:49Z</time>
      </trkpt>
      <trkpt lat="49.17279" lon="1.83777">
        <ele>92</ele>
        <time>2017-08-27T10:26:14Z</time>
      </trkpt>
      <trkpt lat="49.17295" lon="1.83782">
        <ele>99</ele>
        <time>2017-08-27T10:28:56Z</time>
      </trkpt>
      <trkpt lat="49.17307" lon="1.8375">
        <ele>99</ele>
        <time>2017-08-27T10:29:58Z</time>
      </trkpt>
      <trkpt lat="49.17318" lon="1.8368">
        <ele>99</ele>
        <time>2017-08-27T10:30:33Z</time>
      </trkpt>
      <trkpt lat="49.17332" lon="1.83651">
        <ele>100</ele>
        <time>2017-08-27T10:30:50Z</time>
      </trkpt>
      <trkpt lat="49.17343" lon="1.83581">
        <ele>103</ele>
        <time>2017-08-27T10:31:26Z</time>
      </trkpt>
      <trkpt lat="49.17338" lon="1.83512">
        <ele>105</ele>
        <time>2017-08-27T10:32:02Z</time>
      </trkpt>
      <trkpt lat="49.17339" lon="1.83477">
        <ele>106</ele>
        <time>2017-08-27T10:32:24Z</time>
      </trkpt>
      <trkpt lat="49.1735" lon="1.83408">
        <ele>109</ele>
        <time>2017-08-27T10:33:01Z</time>
      </trkpt>
      <trkpt lat="49.17362" lon="1.83377">
        <ele>110</ele>
        <time>2017-08-27T10:33:20Z</time>
      </trkpt>
      <trkpt lat="49.17367" lon="1.83342">
        <ele>111</ele>
        <time>2017-08-27T10:33:35Z</time>
      </trkpt>
      <trkpt lat="49.17383" lon="1.83275">
        <ele>113</ele>
        <time>2017-08-27T10:34:09Z</time>
      </trkpt>
      <trkpt lat="49.174" lon="1.8321">
        <ele>115</ele>
        <time>2017-08-27T10:34:42Z</time>
      </trkpt>
      <trkpt lat="49.17413" lon="1.83144">
        <ele>116</ele>
        <time>2017-08-27T10:35:17Z</time>
      </trkpt>
      <trkpt lat="49.1742" lon="1.83109">
        <ele>117</ele>
        <time>2017-08-27T10:35:35Z</time>
      </trkpt>
      <trkpt lat="49.17427" lon="1.83076">
        <ele>118</ele>
        <time>2017-08-27T10:35:50Z</time>
      </trkpt>
      <trkpt lat="49.17442" lon="1.8305">
        <ele>119</ele>
        <time>2017-08-27T10:36:08Z</time>
      </trkpt>
      <trkpt lat="49.17463" lon="1.82988">
        <ele>121</ele>
        <time>2017-08-27T10:36:43Z</time>
      </trkpt>
      <trkpt lat="49.17491" lon="1.82933">
        <ele>124</ele>
        <time>2017-08-27T10:37:16Z</time>
      </trkpt>
      <trkpt lat="49.17519" lon="1.82878">
        <ele>125</ele>
        <time>2017-08-27T10:37:52Z</time>
      </trkpt>
      <trkpt lat="49.17552" lon="1.8283">
        <ele>125</ele>
        <time>2017-08-27T10:38:26Z</time>
      </trkpt>
      <trkpt lat="49.17584" lon="1.82777">
        <ele>124</ele>
        <time>2017-08-27T10:38:59Z</time>
      </trkpt>
      <trkpt lat="49.17608" lon="1.82718">
        <ele>124</ele>
        <time>2017-08-27T10:39:37Z</time>
      </trkpt>
      <trkpt lat="49.1763" lon="1.82654">
        <ele>124</ele>
        <time>2017-08-27T10:40:12Z</time>
      </trkpt>
      <trkpt lat="49.17652" lon="1.82591">
        <ele>124</ele>
        <time>2017-08-27T10:40:48Z</time>
      </trkpt>
      <trkpt lat="49.17671" lon="1.82524">
        <ele>125</ele>
        <time>2017-08-27T10:41:26Z</time>
      </trkpt>
      <trkpt lat="49.17691" lon="1.82461">
        <ele>126</ele>
        <time>2017-08-27T10:42:01Z</time>
      </trkpt>
      <trkpt lat="49.17701" lon="1.8243">
        <ele>127</ele>
        <time>2017-08-27T10:42:19Z</time>
      </trkpt>
      <trkpt lat="49.17717" lon="1.82404">
        <ele>127</ele>
        <time>2017-08-27T10:42:38Z</time>
      </trkpt>
      <trkpt lat="49.17745" lon="1.82349">
        <ele>128</ele>
        <time>2017-08-27T10:43:11Z</time>
      </trkpt>
      <trkpt lat="49.17773" lon="1.82293">
        <ele>128</ele>
        <time>2017-08-27T10:43:47Z</time>
      </trkpt>
      <trkpt lat="49.17801" lon="1.82236">
        <ele>128</ele>
        <time>2017-08-27T10:44:22Z</time>
      </trkpt>
      <trkpt lat="49.17823" lon="1.82244">
        <ele>127</ele>
        <time>2017-08-27T10:44:47Z</time>
      </trkpt>
      <trkpt lat="49.17839" lon="1.82269">
        <ele>127</ele>
        <time>2017-08-27T10:45:06Z</time>
      </trkpt>
      <trkpt lat="49.1785" lon="1.823">
        <ele>127</ele>
        <time>2017-08-27T10:45:29Z</time>
      </trkpt>
      <trkpt lat="49.17867" lon="1.82327">
        <ele>127</ele>
        <time>2017-08-27T10:45:46Z</time>
      </trkpt>
      <trkpt lat="49.17888" lon="1.82388">
        <ele>128</ele>
        <time>2017-08-27T10:46:23Z</time>
      </trkpt>
      <trkpt lat="49.17904" lon="1.82456">
        <ele>130</ele>
        <time>2017-08-27T10:47:02Z</time>
      </trkpt>
      <trkpt lat="49.17912" lon="1.82489">
        <ele>131</ele>
        <time>2017-08-27T10:47:22Z</time>
      </trkpt>
      <trkpt lat="49.17941" lon="1.82544">
        <ele>132</ele>
        <time>2017-08-27T10:47:56Z</time>
      </trkpt>
      <trkpt lat="49.17956" lon="1.8257">
        <ele>133</ele>
        <time>2017-08-27T10:48:17Z</time>
      </trkpt>
      <trkpt lat="49.17995" lon="1.82608">
        <ele>134</ele>
        <time>2017-08-27T10:48:56Z</time>
      </trkpt>
      <trkpt lat="49.18015" lon="1.82631">
        <ele>135</ele>
        <time>2017-08-27T10:49:11Z</time>
      </trkpt>
      <trkpt lat="49.18056" lon="1.82667">
        <ele>134</ele>
        <time>2017-08-27T10:49:50Z</time>
      </trkpt>
      <trkpt lat="49.18095" lon="1.82705">
        <ele>133</ele>
        <time>2017-08-27T10:50:27Z</time>
      </trkpt>
      <trkpt lat="49.18134" lon="1.82743">
        <ele>131</ele>
        <time>2017-08-27T10:51:07Z</time>
      </trkpt>
      <trkpt lat="49.18172" lon="1.82782">
        <ele>128</ele>
        <time>2017-08-27T10:51:38Z</time>
      </trkpt>
      <trkpt lat="49.18213" lon="1.82816">
        <ele>126</ele>
        <time>2017-08-27T10:52:15Z</time>
      </trkpt>
      <trkpt lat="49.18251" lon="1.82855">
        <ele>125</ele>
        <time>2017-08-27T10:52:50Z</time>
      </trkpt>
      <trkpt lat="49.18292" lon="1.82888">
        <ele>124</ele>
        <time>2017-08-27T10:53:24Z</time>
      </trkpt>
      <trkpt lat="49.18334" lon="1.82919">
        <ele>123</ele>
        <time>2017-08-27T10:53:56Z</time>
      </trkpt>
      <trkpt lat="49.18377" lon="1.82942">
        <ele>122</ele>
        <time>2017-08-27T10:54:35Z</time>
      </trkpt>
      <trkpt lat="49.18422" lon="1.82961">
        <ele>122</ele>
        <time>2017-08-27T10:55:07Z</time>
      </trkpt>
      <trkpt lat="49.18465" lon="1.82981">
        <ele>121</ele>
        <time>2017-08-27T10:55:45Z</time>
      </trkpt>
      <trkpt lat="49.1851" lon="1.82993">
        <ele>121</ele>
        <time>2017-08-27T10:56:19Z</time>
      </trkpt>
      <trkpt lat="49.18556" lon="1.8301">
        <ele>122</ele>
        <time>2017-08-27T10:56:57Z</time>
      </trkpt>
      <trkpt lat="49.18577" lon="1.83021">
        <ele>122</ele>
        <time>2017-08-27T10:57:10Z</time>
      </trkpt>
      <trkpt lat="49.186" lon="1.83023">
        <ele>123</ele>
        <time>2017-08-27T10:57:32Z</time>
      </trkpt>
      <trkpt lat="49.18623" lon="1.83016">
        <ele>124</ele>
        <time>2017-08-27T10:57:58Z</time>
      </trkpt>
      <trkpt lat="49.18641" lon="1.82997">
        <ele>126</ele>
        <time>2017-08-27T10:59:57Z</time>
      </trkpt>
      <trkpt lat="49.18678" lon="1.82951">
        <ele>126</ele>
        <time>2017-08-27T11:00:33Z</time>
      </trkpt>
      <trkpt lat="49.1869" lon="1.82881">
        <ele>126</ele>
        <time>2017-08-27T11:01:12Z</time>
      </trkpt>
      <trkpt lat="49.187" lon="1.8285">
        <ele>126</ele>
        <time>2017-08-27T11:01:28Z</time>
      </trkpt>
      <trkpt lat="49.18722" lon="1.82842">
        <ele>127</ele>
        <time>2017-08-27T11:02:24Z</time>
      </trkpt>
      <trkpt lat="49.18742" lon="1.8286">
        <ele>127</ele>
        <time>2017-08-27T11:03:04Z</time>
      </trkpt>
      <trkpt lat="49.1872" lon="1.82875">
        <ele>123</ele>
        <time>2017-08-27T11:05:15Z</time>
      </trkpt>
      <trkpt lat="49.18717" lon="1.82878">
        <ele>124</ele>
        <time>2017-08-27T11:06:38Z</time>
      </trkpt>
      <trkpt lat="49.18694" lon="1.82881">
        <ele>123</ele>
        <time>2017-08-27T11:07:55Z</time>
      </trkpt>
      <trkpt lat="49.1868" lon="1.82952">
        <ele>123</ele>
        <time>2017-08-27T11:08:36Z</time>
      </trkpt>
      <trkpt lat="49.18668" lon="1.82983">
        <ele>124</ele>
        <time>2017-08-27T11:08:53Z</time>
      </trkpt>
      <trkpt lat="49.1866" lon="1.83016">
        <ele>124</ele>
        <time>2017-08-27T11:09:25Z</time>
      </trkpt>
      <trkpt lat="49.18677" lon="1.83041">
        <ele>125</ele>
        <time>2017-08-27T11:09:47Z</time>
      </trkpt>
      <trkpt lat="49.18699" lon="1.83049">
        <ele>126</ele>
        <time>2017-08-27T11:10:05Z</time>
      </trkpt>
      <trkpt lat="49.18737" lon="1.83089">
        <ele>127</ele>
        <time>2017-08-27T11:10:49Z</time>
      </trkpt>
      <trkpt lat="49.1876" lon="1.83106">
        <ele>129</ele>
        <time>2017-08-27T11:11:18Z</time>
      </trkpt>
      <trkpt lat="49.18764" lon="1.8314">
        <ele>130</ele>
        <time>2017-08-27T11:11:36Z</time>
      </trkpt>
      <trkpt lat="49.18753" lon="1.8317">
        <ele>131</ele>
        <time>2017-08-27T11:12:00Z</time>
      </trkpt>
      <trkpt lat="49.18738" lon="1.83196">
        <ele>132</ele>
        <time>2017-08-27T11:12:46Z</time>
      </trkpt>
      <trkpt lat="49.18725" lon="1.83224">
        <ele>134</ele>
        <time>2017-08-27T11:13:32Z</time>
      </trkpt>
      <trkpt lat="49.18715" lon="1.83222">
        <ele>155</ele>
        <time>2017-08-27T12:08:14Z</time>
      </trkpt>
      <trkpt lat="49.18734" lon="1.832">
        <ele>155</ele>
        <time>2017-08-27T12:09:21Z</time>
      </trkpt>
      <trkpt lat="49.18745" lon="1.83174">
        <ele>155</ele>
        <time>2017-08-27T12:09:42Z</time>
      </trkpt>
      <trkpt lat="49.18765" lon="1.83191">
        <ele>156</ele>
        <time>2017-08-27T12:10:39Z</time>
      </trkpt>
      <trkpt lat="49.18785" lon="1.83209">
        <ele>157</ele>
        <time>2017-08-27T12:10:54Z</time>
      </trkpt>
      <trkpt lat="49.18822" lon="1.83251">
        <ele>159</ele>
        <time>2017-08-27T12:11:34Z</time>
      </trkpt>
      <trkpt lat="49.18844" lon="1.83273">
        <ele>161</ele>
        <time>2017-08-27T12:12:09Z</time>
      </trkpt>
      <trkpt lat="49.1886" lon="1.83297">
        <ele>163</ele>
        <time>2017-08-27T12:12:28Z</time>
      </trkpt>
      <trkpt lat="49.1888" lon="1.83362">
        <ele>167</ele>
        <time>2017-08-27T12:13:02Z</time>
      </trkpt>
      <trkpt lat="49.1889" lon="1.83393">
        <ele>169</ele>
        <time>2017-08-27T12:13:22Z</time>
      </trkpt>
      <trkpt lat="49.18902" lon="1.83424">
        <ele>172</ele>
        <time>2017-08-27T12:13:54Z</time>
      </trkpt>
      <trkpt lat="49.18915" lon="1.83453">
        <ele>181</ele>
        <time>2017-08-27T12:19:38Z</time>
      </trkpt>
      <trkpt lat="49.18923" lon="1.83486">
        <ele>182</ele>
        <time>2017-08-27T12:20:14Z</time>
      </trkpt>
      <trkpt lat="49.18929" lon="1.83557">
        <ele>181</ele>
        <time>2017-08-27T12:20:52Z</time>
      </trkpt>
      <trkpt lat="49.18923" lon="1.83592">
        <ele>181</ele>
        <time>2017-08-27T12:21:18Z</time>
      </trkpt>
      <trkpt lat="49.18934" lon="1.83664">
        <ele>180</ele>
        <time>2017-08-27T12:22:04Z</time>
      </trkpt>
      <trkpt lat="49.18943" lon="1.83696">
        <ele>180</ele>
        <time>2017-08-27T12:22:26Z</time>
      </trkpt>
      <trkpt lat="49.18958" lon="1.83723">
        <ele>180</ele>
        <time>2017-08-27T12:22:37Z</time>
      </trkpt>
      <trkpt lat="49.18964" lon="1.83756">
        <ele>180</ele>
        <time>2017-08-27T12:22:52Z</time>
      </trkpt>
      <trkpt lat="49.18964" lon="1.8379">
        <ele>180</ele>
        <time>2017-08-27T12:23:11Z</time>
      </trkpt>
      <trkpt lat="49.1898" lon="1.83856">
        <ele>180</ele>
        <time>2017-08-27T12:23:47Z</time>
      </trkpt>
      <trkpt lat="49.18996" lon="1.83907">
        <ele>181</ele>
        <time>2017-08-27T12:24:29Z</time>
      </trkpt>
      <trkpt lat="49.19015" lon="1.83924">
        <ele>181</ele>
        <time>2017-08-27T12:24:49Z</time>
      </trkpt>
      <trkpt lat="49.19047" lon="1.83976">
        <ele>181</ele>
        <time>2017-08-27T12:25:21Z</time>
      </trkpt>
      <trkpt lat="49.19062" lon="1.84004">
        <ele>183</ele>
        <time>2017-08-27T12:26:03Z</time>
      </trkpt>
      <trkpt lat="49.19088" lon="1.8406">
        <ele>185</ele>
        <time>2017-08-27T12:26:23Z</time>
      </trkpt>
      <trkpt lat="49.19094" lon="1.84094">
        <ele>186</ele>
        <time>2017-08-27T12:26:36Z</time>
      </trkpt>
      <trkpt lat="49.19088" lon="1.84129">
        <ele>187</ele>
        <time>2017-08-27T12:26:56Z</time>
      </trkpt>
      <trkpt lat="49.19121" lon="1.84179">
        <ele>189</ele>
        <time>2017-08-27T12:27:38Z</time>
      </trkpt>
      <trkpt lat="49.19154" lon="1.84271">
        <ele>185</ele>
        <time>2017-08-27T12:28:24Z</time>
      </trkpt>
      <trkpt lat="49.1918" lon="1.84328">
        <ele>183</ele>
        <time>2017-08-27T12:28:55Z</time>
      </trkpt>
      <trkpt lat="49.19201" lon="1.84314">
        <ele>183</ele>
        <time>2017-08-27T12:29:27Z</time>
      </trkpt>
      <trkpt lat="49.19231" lon="1.84259">
        <ele>183</ele>
        <time>2017-08-27T12:30:05Z</time>
      </trkpt>
      <trkpt lat="49.19237" lon="1.8419">
        <ele>185</ele>
        <time>2017-08-27T12:30:45Z</time>
      </trkpt>
      <trkpt lat="49.19231" lon="1.84119">
        <ele>187</ele>
        <time>2017-08-27T12:31:22Z</time>
      </trkpt>
      <trkpt lat="49.19226" lon="1.84084">
        <ele>188</ele>
        <time>2017-08-27T12:31:39Z</time>
      </trkpt>
      <trkpt lat="49.19225" lon="1.84015">
        <ele>190</ele>
        <time>2017-08-27T12:32:18Z</time>
      </trkpt>
      <trkpt lat="49.1922" lon="1.83981">
        <ele>191</ele>
        <time>2017-08-27T12:32:38Z</time>
      </trkpt>
      <trkpt lat="49.19223" lon="1.83911">
        <ele>193</ele>
        <time>2017-08-27T12:33:16Z</time>
      </trkpt>
      <trkpt lat="49.19227" lon="1.83877">
        <ele>194</ele>
        <time>2017-08-27T12:33:29Z</time>
      </trkpt>
      <trkpt lat="49.19243" lon="1.83811">
        <ele>196</ele>
        <time>2017-08-27T12:34:03Z</time>
      </trkpt>
      <trkpt lat="49.19259" lon="1.83745">
        <ele>198</ele>
        <time>2017-08-27T12:34:40Z</time>
      </trkpt>
      <trkpt lat="49.19263" lon="1.83712">
        <ele>199</ele>
        <time>2017-08-27T12:35:32Z</time>
      </trkpt>
      <trkpt lat="49.19288" lon="1.83651">
        <ele>200</ele>
        <time>2017-08-27T12:36:16Z</time>
      </trkpt>
      <trkpt lat="49.193" lon="1.83621">
        <ele>200</ele>
        <time>2017-08-27T12:36:30Z</time>
      </trkpt>
      <trkpt lat="49.19303" lon="1.8358">
        <ele>200</ele>
        <time>2017-08-27T12:37:13Z</time>
      </trkpt>
      <trkpt lat="49.19308" lon="1.83545">
        <ele>201</ele>
        <time>2017-08-27T12:37:30Z</time>
      </trkpt>
      <trkpt lat="49.19312" lon="1.83474">
        <ele>201</ele>
        <time>2017-08-27T12:38:01Z</time>
      </trkpt>
      <trkpt lat="49.19318" lon="1.8344">
        <ele>201</ele>
        <time>2017-08-27T12:38:23Z</time>
      </trkpt>
      <trkpt lat="49.19315" lon="1.83404">
        <ele>201</ele>
        <time>2017-08-27T12:38:41Z</time>
      </trkpt>
      <trkpt lat="49.19324" lon="1.83332">
        <ele>201</ele>
        <time>2017-08-27T12:39:18Z</time>
      </trkpt>
      <trkpt lat="49.19334" lon="1.8326">
        <ele>201</ele>
        <time>2017-08-27T12:39:53Z</time>
      </trkpt>
      <trkpt lat="49.19352" lon="1.83191">
        <ele>201</ele>
        <time>2017-08-27T12:40:33Z</time>
      </trkpt>
      <trkpt lat="49.1937" lon="1.83124">
        <ele>200</ele>
        <time>2017-08-27T12:41:09Z</time>
      </trkpt>
      <trkpt lat="49.19386" lon="1.83059">
        <ele>200</ele>
        <time>2017-08-27T12:41:52Z</time>
      </trkpt>
      <trkpt lat="49.1939" lon="1.83053">
        <ele>201</ele>
        <time>2017-08-27T12:43:58Z</time>
      </trkpt>
      <trkpt lat="49.19389" lon="1.83088">
        <ele>200</ele>
        <time>2017-08-27T12:44:31Z</time>
      </trkpt>
      <trkpt lat="49.1938" lon="1.83119">
        <ele>200</ele>
        <time>2017-08-27T12:45:07Z</time>
      </trkpt>
      <trkpt lat="49.19365" lon="1.83185">
        <ele>200</ele>
        <time>2017-08-27T12:45:47Z</time>
      </trkpt>
      <trkpt lat="49.1936" lon="1.8322">
        <ele>201</ele>
        <time>2017-08-27T12:46:08Z</time>
      </trkpt>
      <trkpt lat="49.19337" lon="1.83281">
        <ele>201</ele>
        <time>2017-08-27T12:46:44Z</time>
      </trkpt>
      <trkpt lat="49.1933" lon="1.83314">
        <ele>201</ele>
        <time>2017-08-27T12:47:03Z</time>
      </trkpt>
      <trkpt lat="49.19331" lon="1.83355">
        <ele>201</ele>
        <time>2017-08-27T12:47:29Z</time>
      </trkpt>
      <trkpt lat="49.19327" lon="1.83389">
        <ele>201</ele>
        <time>2017-08-27T12:47:52Z</time>
      </trkpt>
      <trkpt lat="49.19327" lon="1.8346">
        <ele>201</ele>
        <time>2017-08-27T12:48:31Z</time>
      </trkpt>
      <trkpt lat="49.19322" lon="1.83494">
        <ele>201</ele>
        <time>2017-08-27T12:48:49Z</time>
      </trkpt>
      <trkpt lat="49.1931" lon="1.83525">
        <ele>201</ele>
        <time>2017-08-27T12:49:08Z</time>
      </trkpt>
      <trkpt lat="49.19316" lon="1.83558">
        <ele>201</ele>
        <time>2017-08-27T12:49:38Z</time>
      </trkpt>
      <trkpt lat="49.19321" lon="1.83593">
        <ele>201</ele>
        <time>2017-08-27T12:49:52Z</time>
      </trkpt>
      <trkpt lat="49.19296" lon="1.83655">
        <ele>202</ele>
        <time>2017-08-27T12:50:34Z</time>
      </trkpt>
      <trkpt lat="49.19294" lon="1.8369">
        <ele>202</ele>
        <time>2017-08-27T12:50:51Z</time>
      </trkpt>
      <trkpt lat="49.19278" lon="1.83715">
        <ele>201</ele>
        <time>2017-08-27T12:51:08Z</time>
      </trkpt>
      <trkpt lat="49.19269" lon="1.83747">
        <ele>201</ele>
        <time>2017-08-27T12:51:26Z</time>
      </trkpt>
      <trkpt lat="49.19267" lon="1.83782">
        <ele>201</ele>
        <time>2017-08-27T12:51:45Z</time>
      </trkpt>
      <trkpt lat="49.19255" lon="1.83811">
        <ele>201</ele>
        <time>2017-08-27T12:52:04Z</time>
      </trkpt>
      <trkpt lat="49.19248" lon="1.83845">
        <ele>200</ele>
        <time>2017-08-27T12:52:19Z</time>
      </trkpt>
      <trkpt lat="49.19235" lon="1.83873">
        <ele>200</ele>
        <time>2017-08-27T12:52:35Z</time>
      </trkpt>
      <trkpt lat="49.19238" lon="1.83908">
        <ele>199</ele>
        <time>2017-08-27T12:52:54Z</time>
      </trkpt>
      <trkpt lat="49.19232" lon="1.83979">
        <ele>198</ele>
        <time>2017-08-27T12:53:33Z</time>
      </trkpt>
      <trkpt lat="49.19232" lon="1.84049">
        <ele>196</ele>
        <time>2017-08-27T12:54:04Z</time>
      </trkpt>
      <trkpt lat="49.19228" lon="1.84084">
        <ele>195</ele>
        <time>2017-08-27T12:54:18Z</time>
      </trkpt>
      <trkpt lat="49.19239" lon="1.84152">
        <ele>192</ele>
        <time>2017-08-27T12:54:50Z</time>
      </trkpt>
      <trkpt lat="49.19245" lon="1.84186">
        <ele>191</ele>
        <time>2017-08-27T12:55:09Z</time>
      </trkpt>
      <trkpt lat="49.19245" lon="1.84221">
        <ele>190</ele>
        <time>2017-08-27T12:55:30Z</time>
      </trkpt>
      <trkpt lat="49.19237" lon="1.84254">
        <ele>189</ele>
        <time>2017-08-27T12:55:51Z</time>
      </trkpt>
      <trkpt lat="49.19207" lon="1.84307">
        <ele>187</ele>
        <time>2017-08-27T12:56:25Z</time>
      </trkpt>
      <trkpt lat="49.19196" lon="1.84337">
        <ele>186</ele>
        <time>2017-08-27T12:56:40Z</time>
      </trkpt>
      <trkpt lat="49.19226" lon="1.84391">
        <ele>184</ele>
        <time>2017-08-27T12:57:19Z</time>
      </trkpt>
      <trkpt lat="49.19218" lon="1.84424">
        <ele>183</ele>
        <time>2017-08-27T12:57:35Z</time>
      </trkpt>
      <trkpt lat="49.19207" lon="1.84491">
        <ele>177</ele>
        <time>2017-08-27T12:58:08Z</time>
      </trkpt>
      <trkpt lat="49.19196" lon="1.84559">
        <ele>173</ele>
        <time>2017-08-27T12:58:46Z</time>
      </trkpt>
      <trkpt lat="49.19184" lon="1.84627">
        <ele>170</ele>
        <time>2017-08-27T12:59:21Z</time>
      </trkpt>
      <trkpt lat="49.19168" lon="1.84695">
        <ele>165</ele>
        <time>2017-08-27T12:59:54Z</time>
      </trkpt>
      <trkpt lat="49.19152" lon="1.84762">
        <ele>161</ele>
        <time>2017-08-27T13:00:28Z</time>
      </trkpt>
      <trkpt lat="49.19136" lon="1.84826">
        <ele>158</ele>
        <time>2017-08-27T13:00:59Z</time>
      </trkpt>
      <trkpt lat="49.19119" lon="1.84892">
        <ele>156</ele>
        <time>2017-08-27T13:01:34Z</time>
      </trkpt>
      <trkpt lat="49.19097" lon="1.84954">
        <ele>154</ele>
        <time>2017-08-27T13:02:10Z</time>
      </trkpt>
      <trkpt lat="49.19083" lon="1.84981">
        <ele>153</ele>
        <time>2017-08-27T13:02:27Z</time>
      </trkpt>
      <trkpt lat="49.19044" lon="1.85022">
        <ele>150</ele>
        <time>2017-08-27T13:03:00Z</time>
      </trkpt>
      <trkpt lat="49.19007" lon="1.85063">
        <ele>148</ele>
        <time>2017-08-27T13:03:34Z</time>
      </trkpt>
      <trkpt lat="49.18968" lon="1.851">
        <ele>145</ele>
        <time>2017-08-27T13:04:08Z</time>
      </trkpt>
      <trkpt lat="49.1893" lon="1.85138">
        <ele>142</ele>
        <time>2017-08-27T13:04:42Z</time>
      </trkpt>
      <trkpt lat="49.18893" lon="1.8518">
        <ele>139</ele>
        <time>2017-08-27T13:05:15Z</time>
      </trkpt>
      <trkpt lat="49.18853" lon="1.85214">
        <ele>138</ele>
        <time>2017-08-27T13:05:50Z</time>
      </trkpt>
      <trkpt lat="49.18834" lon="1.85235">
        <ele>139</ele>
        <time>2017-08-27T13:09:19Z</time>
      </trkpt>
      <trkpt lat="49.18792" lon="1.85267">
        <ele>138</ele>
        <time>2017-08-27T13:09:49Z</time>
      </trkpt>
      <trkpt lat="49.18729" lon="1.85313">
        <ele>137</ele>
        <time>2017-08-27T13:10:35Z</time>
      </trkpt>
      <trkpt lat="49.18688" lon="1.85348">
        <ele>136</ele>
        <time>2017-08-27T13:11:07Z</time>
      </trkpt>
      <trkpt lat="49.18673" lon="1.85376">
        <ele>135</ele>
        <time>2017-08-27T13:11:26Z</time>
      </trkpt>
      <trkpt lat="49.18634" lon="1.85414">
        <ele>135</ele>
        <time>2017-08-27T13:11:58Z</time>
      </trkpt>
      <trkpt lat="49.18599" lon="1.85456">
        <ele>135</ele>
        <time>2017-08-27T13:12:29Z</time>
      </trkpt>
      <trkpt lat="49.18559" lon="1.85494">
        <ele>136</ele>
        <time>2017-08-27T13:13:05Z</time>
      </trkpt>
      <trkpt lat="49.18527" lon="1.85544">
        <ele>136</ele>
        <time>2017-08-27T13:13:38Z</time>
      </trkpt>
      <trkpt lat="49.18495" lon="1.85594">
        <ele>136</ele>
        <time>2017-08-27T13:14:10Z</time>
      </trkpt>
      <trkpt lat="49.18476" lon="1.85615">
        <ele>135</ele>
        <time>2017-08-27T13:14:27Z</time>
      </trkpt>
      <trkpt lat="49.18451" lon="1.85673">
        <ele>135</ele>
        <time>2017-08-27T13:15:00Z</time>
      </trkpt>
      <trkpt lat="49.18432" lon="1.85694">
        <ele>135</ele>
        <time>2017-08-27T13:15:17Z</time>
      </trkpt>
      <trkpt lat="49.18424" lon="1.85727">
        <ele>137</ele>
        <time>2017-08-27T13:15:59Z</time>
      </trkpt>
      <trkpt lat="49.1843" lon="1.85734">
        <ele>138</ele>
        <time>2017-08-27T13:16:49Z</time>
      </trkpt>
      <trkpt lat="49.18436" lon="1.85768">
        <ele>139</ele>
        <time>2017-08-27T13:17:46Z</time>
      </trkpt>
      <trkpt lat="49.18425" lon="1.85738">
        <ele>141</ele>
        <time>2017-08-27T13:19:50Z</time>
      </trkpt>
      <trkpt lat="49.18406" lon="1.85716">
        <ele>140</ele>
        <time>2017-08-27T13:20:12Z</time>
      </trkpt>
      <trkpt lat="49.18384" lon="1.85712">
        <ele>141</ele>
        <time>2017-08-27T13:20:32Z</time>
      </trkpt>
      <trkpt lat="49.1836" lon="1.85712">
        <ele>142</ele>
        <time>2017-08-27T13:21:06Z</time>
      </trkpt>
      <trkpt lat="49.18314" lon="1.85719">
        <ele>143</ele>
        <time>2017-08-27T13:21:38Z</time>
      </trkpt>
      <trkpt lat="49.18269" lon="1.8574">
        <ele>142</ele>
        <time>2017-08-27T13:22:13Z</time>
      </trkpt>
      <trkpt lat="49.18223" lon="1.85758">
        <ele>140</ele>
        <time>2017-08-27T13:22:45Z</time>
      </trkpt>
      <trkpt lat="49.182" lon="1.85764">
        <ele>138</ele>
        <time>2017-08-27T13:23:34Z</time>
      </trkpt>
      <trkpt lat="49.18157" lon="1.85784">
        <ele>136</ele>
        <time>2017-08-27T13:24:08Z</time>
      </trkpt>
      <trkpt lat="49.18134" lon="1.85792">
        <ele>135</ele>
        <time>2017-08-27T13:24:23Z</time>
      </trkpt>
      <trkpt lat="49.18091" lon="1.85821">
        <ele>134</ele>
        <time>2017-08-27T13:24:58Z</time>
      </trkpt>
      <trkpt lat="49.18072" lon="1.85839">
        <ele>133</ele>
        <time>2017-08-27T13:25:14Z</time>
      </trkpt>
      <trkpt lat="49.18072" lon="1.85874">
        <ele>133</ele>
        <time>2017-08-27T13:25:43Z</time>
      </trkpt>
      <trkpt lat="49.18085" lon="1.85905">
        <ele>133</ele>
        <time>2017-08-27T13:26:00Z</time>
      </trkpt>
      <trkpt lat="49.1812" lon="1.85949">
        <ele>133</ele>
        <time>2017-08-27T13:26:35Z</time>
      </trkpt>
      <trkpt lat="49.18155" lon="1.85996">
        <ele>133</ele>
        <time>2017-08-27T13:27:10Z</time>
      </trkpt>
      <trkpt lat="49.18191" lon="1.8604">
        <ele>133</ele>
        <time>2017-08-27T13:27:44Z</time>
      </trkpt>
      <trkpt lat="49.18228" lon="1.86081">
        <ele>133</ele>
        <time>2017-08-27T13:28:17Z</time>
      </trkpt>
      <trkpt lat="49.18263" lon="1.86127">
        <ele>132</ele>
        <time>2017-08-27T13:28:49Z</time>
      </trkpt>
      <trkpt lat="49.18299" lon="1.8617">
        <ele>131</ele>
        <time>2017-08-27T13:29:22Z</time>
      </trkpt>
      <trkpt lat="49.18333" lon="1.86217">
        <ele>131</ele>
        <time>2017-08-27T13:29:54Z</time>
      </trkpt>
      <trkpt lat="49.1837" lon="1.86261">
        <ele>130</ele>
        <time>2017-08-27T13:30:27Z</time>
      </trkpt>
      <trkpt lat="49.18409" lon="1.86301">
        <ele>129</ele>
        <time>2017-08-27T13:31:00Z</time>
      </trkpt>
      <trkpt lat="49.18449" lon="1.86336">
        <ele>128</ele>
        <time>2017-08-27T13:31:32Z</time>
      </trkpt>
      <trkpt lat="49.18494" lon="1.86357">
        <ele>127</ele>
        <time>2017-08-27T13:32:04Z</time>
      </trkpt>
      <trkpt lat="49.18516" lon="1.86365">
        <ele>127</ele>
        <time>2017-08-27T13:32:21Z</time>
      </trkpt>
      <trkpt lat="49.18527" lon="1.86397">
        <ele>126</ele>
        <time>2017-08-27T13:32:40Z</time>
      </trkpt>
      <trkpt lat="49.18525" lon="1.86432">
        <ele>126</ele>
        <time>2017-08-27T13:32:57Z</time>
      </trkpt>
      <trkpt lat="49.18533" lon="1.86502">
        <ele>125</ele>
        <time>2017-08-27T13:33:38Z</time>
      </trkpt>
      <trkpt lat="49.18547" lon="1.86568">
        <ele>125</ele>
        <time>2017-08-27T13:34:11Z</time>
      </trkpt>
      <trkpt lat="49.18559" lon="1.86636">
        <ele>124</ele>
        <time>2017-08-27T13:34:44Z</time>
      </trkpt>
      <trkpt lat="49.18573" lon="1.86702">
        <ele>124</ele>
        <time>2017-08-27T13:35:17Z</time>
      </trkpt>
      <trkpt lat="49.18583" lon="1.86772">
        <ele>124</ele>
        <time>2017-08-27T13:35:52Z</time>
      </trkpt>
      <trkpt lat="49.18596" lon="1.86839">
        <ele>123</ele>
        <time>2017-08-27T13:36:24Z</time>
      </trkpt>
      <trkpt lat="49.18602" lon="1.8691">
        <ele>122</ele>
        <time>2017-08-27T13:36:58Z</time>
      </trkpt>
      <trkpt lat="49.18609" lon="1.8698">
        <ele>121</ele>
        <time>2017-08-27T13:37:33Z</time>
      </trkpt>
      <trkpt lat="49.18618" lon="1.87049">
        <ele>121</ele>
        <time>2017-08-27T13:38:06Z</time>
      </trkpt>
      <trkpt lat="49.18628" lon="1.87118">
        <ele>120</ele>
        <time>2017-08-27T13:38:39Z</time>
      </trkpt>
      <trkpt lat="49.1864" lon="1.87188">
        <ele>120</ele>
        <time>2017-08-27T13:39:13Z</time>
      </trkpt>
      <trkpt lat="49.18652" lon="1.87257">
        <ele>119</ele>
        <time>2017-08-27T13:39:47Z</time>
      </trkpt>
      <trkpt lat="49.18663" lon="1.87325">
        <ele>119</ele>
        <time>2017-08-27T13:40:21Z</time>
      </trkpt>
      <trkpt lat="49.18666" lon="1.87395">
        <ele>119</ele>
        <time>2017-08-27T13:40:55Z</time>
      </trkpt>
      <trkpt lat="49.18671" lon="1.87465">
        <ele>119</ele>
        <time>2017-08-27T13:41:28Z</time>
      </trkpt>
      <trkpt lat="49.18677" lon="1.87535">
        <ele>120</ele>
        <time>2017-08-27T13:42:00Z</time>
      </trkpt>
      <trkpt lat="49.18681" lon="1.87606">
        <ele>120</ele>
        <time>2017-08-27T13:42:33Z</time>
      </trkpt>
      <trkpt lat="49.18688" lon="1.87676">
        <ele>119</ele>
        <time>2017-08-27T13:43:06Z</time>
      </trkpt>
      <trkpt lat="49.18697" lon="1.87744">
        <ele>118</ele>
        <time>2017-08-27T13:43:39Z</time>
      </trkpt>
      <trkpt lat="49.18705" lon="1.87812">
        <ele>117</ele>
        <time>2017-08-27T13:44:14Z</time>
      </trkpt>
      <trkpt lat="49.18711" lon="1.87846">
        <ele>117</ele>
        <time>2017-08-27T13:44:32Z</time>
      </trkpt>
      <trkpt lat="49.18755" lon="1.8786">
        <ele>116</ele>
        <time>2017-08-27T13:45:13Z</time>
      </trkpt>
      <trkpt lat="49.18799" lon="1.8787">
        <ele>116</ele>
        <time>2017-08-27T13:45:48Z</time>
      </trkpt>
      <trkpt lat="49.18844" lon="1.87886">
        <ele>115</ele>
        <time>2017-08-27T13:46:24Z</time>
      </trkpt>
      <trkpt lat="49.18888" lon="1.87906">
        <ele>115</ele>
        <time>2017-08-27T13:46:56Z</time>
      </trkpt>
      <trkpt lat="49.1891" lon="1.8792">
        <ele>115</ele>
        <time>2017-08-27T13:47:13Z</time>
      </trkpt>
      <trkpt lat="49.18944" lon="1.87965">
        <ele>114</ele>
        <time>2017-08-27T13:47:46Z</time>
      </trkpt>
      <trkpt lat="49.18982" lon="1.88009">
        <ele>114</ele>
        <time>2017-08-27T13:48:25Z</time>
      </trkpt>
      <trkpt lat="49.19014" lon="1.88061">
        <ele>113</ele>
        <time>2017-08-27T13:48:56Z</time>
      </trkpt>
      <trkpt lat="49.1903" lon="1.88086">
        <ele>113</ele>
        <time>2017-08-27T13:49:19Z</time>
      </trkpt>
      <trkpt lat="49.19032" lon="1.88105">
        <ele>112</ele>
        <time>2017-08-27T13:49:46Z</time>
      </trkpt>
      <trkpt lat="49.19025" lon="1.88138">
        <ele>110</ele>
        <time>2017-08-27T13:55:17Z</time>
      </trkpt>
      <trkpt lat="49.19008" lon="1.8816">
        <ele>111</ele>
        <time>2017-08-27T13:55:38Z</time>
      </trkpt>
      <trkpt lat="49.18979" lon="1.88213">
        <ele>111</ele>
        <time>2017-08-27T13:56:13Z</time>
      </trkpt>
      <trkpt lat="49.18947" lon="1.88264">
        <ele>110</ele>
        <time>2017-08-27T13:56:48Z</time>
      </trkpt>
      <trkpt lat="49.18915" lon="1.88315">
        <ele>111</ele>
        <time>2017-08-27T13:57:26Z</time>
      </trkpt>
      <trkpt lat="49.18883" lon="1.88365">
        <ele>111</ele>
        <time>2017-08-27T13:58:02Z</time>
      </trkpt>
      <trkpt lat="49.18852" lon="1.88418">
        <ele>111</ele>
        <time>2017-08-27T13:58:38Z</time>
      </trkpt>
      <trkpt lat="49.18823" lon="1.88473">
        <ele>111</ele>
        <time>2017-08-27T13:59:17Z</time>
      </trkpt>
      <trkpt lat="49.18812" lon="1.88504">
        <ele>111</ele>
        <time>2017-08-27T13:59:34Z</time>
      </trkpt>
      <trkpt lat="49.18826" lon="1.88532">
        <ele>111</ele>
        <time>2017-08-27T13:59:59Z</time>
      </trkpt>
      <trkpt lat="49.18866" lon="1.88568">
        <ele>108</ele>
        <time>2017-08-27T14:00:36Z</time>
      </trkpt>
      <trkpt lat="49.18899" lon="1.88618">
        <ele>105</ele>
        <time>2017-08-27T14:01:19Z</time>
      </trkpt>
      <trkpt lat="49.18912" lon="1.88648">
        <ele>104</ele>
        <time>2017-08-27T14:01:40Z</time>
      </trkpt>
      <trkpt lat="49.18918" lon="1.88718">
        <ele>103</ele>
        <time>2017-08-27T14:02:15Z</time>
      </trkpt>
      <trkpt lat="49.18923" lon="1.88753">
        <ele>103</ele>
        <time>2017-08-27T14:02:37Z</time>
      </trkpt>
      <trkpt lat="49.18943" lon="1.88773">
        <ele>103</ele>
        <time>2017-08-27T14:02:54Z</time>
      </trkpt>
      <trkpt lat="49.18966" lon="1.88776">
        <ele>102</ele>
        <time>2017-08-27T14:03:12Z</time>
      </trkpt>
      <trkpt lat="49.1899" lon="1.88837">
        <ele>102</ele>
        <time>2017-08-27T14:03:45Z</time>
      </trkpt>
      <trkpt lat="49.19006" lon="1.88901">
        <ele>102</ele>
        <time>2017-08-27T14:04:19Z</time>
      </trkpt>
      <trkpt lat="49.19013" lon="1.88972">
        <ele>103</ele>
        <time>2017-08-27T14:04:57Z</time>
      </trkpt>
      <trkpt lat="49.19018" lon="1.89042">
        <ele>103</ele>
        <time>2017-08-27T14:05:32Z</time>
      </trkpt>
      <trkpt lat="49.19024" lon="1.89115">
        <ele>104</ele>
        <time>2017-08-27T14:06:11Z</time>
      </trkpt>
      <trkpt lat="49.19029" lon="1.89183">
        <ele>104</ele>
        <time>2017-08-27T14:06:44Z</time>
      </trkpt>
      <trkpt lat="49.19035" lon="1.89254">
        <ele>104</ele>
        <time>2017-08-27T14:07:21Z</time>
      </trkpt>
      <trkpt lat="49.19042" lon="1.89323">
        <ele>104</ele>
        <time>2017-08-27T14:07:56Z</time>
      </trkpt>
      <trkpt lat="49.19043" lon="1.89358">
        <ele>104</ele>
        <time>2017-08-27T14:08:13Z</time>
      </trkpt>
      <trkpt lat="49.19057" lon="1.89425">
        <ele>104</ele>
        <time>2017-08-27T14:08:47Z</time>
      </trkpt>
      <trkpt lat="49.19067" lon="1.89493">
        <ele>104</ele>
        <time>2017-08-27T14:09:22Z</time>
      </trkpt>
      <trkpt lat="49.1907" lon="1.89529">
        <ele>104</ele>
        <time>2017-08-27T14:09:39Z</time>
      </trkpt>
      <trkpt lat="49.19064" lon="1.89598">
        <ele>103</ele>
        <time>2017-08-27T14:10:14Z</time>
      </trkpt>
      <trkpt lat="49.19058" lon="1.8967">
        <ele>102</ele>
        <time>2017-08-27T14:10:50Z</time>
      </trkpt>
      <trkpt lat="49.1906" lon="1.89706">
        <ele>102</ele>
        <time>2017-08-27T14:11:08Z</time>
      </trkpt>
      <trkpt lat="49.19056" lon="1.89777">
        <ele>102</ele>
        <time>2017-08-27T14:11:44Z</time>
      </trkpt>
      <trkpt lat="49.19049" lon="1.89846">
        <ele>102</ele>
        <time>2017-08-27T14:12:20Z</time>
      </trkpt>
      <trkpt lat="49.19042" lon="1.89916">
        <ele>101</ele>
        <time>2017-08-27T14:12:56Z</time>
      </trkpt>
      <trkpt lat="49.19039" lon="1.89987">
        <ele>100</ele>
        <time>2017-08-27T14:13:30Z</time>
      </trkpt>
      <trkpt lat="49.19032" lon="1.90057">
        <ele>99</ele>
        <time>2017-08-27T14:14:06Z</time>
      </trkpt>
      <trkpt lat="49.19032" lon="1.90126">
        <ele>98</ele>
        <time>2017-08-27T14:14:40Z</time>
      </trkpt>
      <trkpt lat="49.19026" lon="1.9016">
        <ele>98</ele>
        <time>2017-08-27T14:14:56Z</time>
      </trkpt>
      <trkpt lat="49.19021" lon="1.9023">
        <ele>99</ele>
        <time>2017-08-27T14:15:31Z</time>
      </trkpt>
      <trkpt lat="49.19016" lon="1.903">
        <ele>100</ele>
        <time>2017-08-27T14:16:05Z</time>
      </trkpt>
      <trkpt lat="49.19015" lon="1.90336">
        <ele>100</ele>
        <time>2017-08-27T14:16:22Z</time>
      </trkpt>
      <trkpt lat="49.19013" lon="1.90408">
        <ele>100</ele>
        <time>2017-08-27T14:16:59Z</time>
      </trkpt>
      <trkpt lat="49.19012" lon="1.90444">
        <ele>100</ele>
        <time>2017-08-27T14:17:17Z</time>
      </trkpt>
      <trkpt lat="49.19019" lon="1.90513">
        <ele>101</ele>
        <time>2017-08-27T14:17:51Z</time>
      </trkpt>
      <trkpt lat="49.19025" lon="1.90585">
        <ele>100</ele>
        <time>2017-08-27T14:18:27Z</time>
      </trkpt>
      <trkpt lat="49.19034" lon="1.90654">
        <ele>99</ele>
        <time>2017-08-27T14:19:03Z</time>
      </trkpt>
      <trkpt lat="49.19041" lon="1.90724">
        <ele>98</ele>
        <time>2017-08-27T14:19:37Z</time>
      </trkpt>
      <trkpt lat="49.19049" lon="1.90793">
        <ele>98</ele>
        <time>2017-08-27T14:20:12Z</time>
      </trkpt>
      <trkpt lat="49.19056" lon="1.90863">
        <ele>98</ele>
        <time>2017-08-27T14:20:46Z</time>
      </trkpt>
      <trkpt lat="49.19066" lon="1.90932">
        <ele>98</ele>
        <time>2017-08-27T14:21:19Z</time>
      </trkpt>
      <trkpt lat="49.19068" lon="1.91001">
        <ele>98</ele>
        <time>2017-08-27T14:21:52Z</time>
      </trkpt>
      <trkpt lat="49.19064" lon="1.9107">
        <ele>96</ele>
        <time>2017-08-27T14:22:30Z</time>
      </trkpt>
      <trkpt lat="49.1905" lon="1.91137">
        <ele>93</ele>
        <time>2017-08-27T14:23:06Z</time>
      </trkpt>
      <trkpt lat="49.19038" lon="1.91205">
        <ele>90</ele>
        <time>2017-08-27T14:23:43Z</time>
      </trkpt>
      <trkpt lat="49.1904" lon="1.91275">
        <ele>87</ele>
        <time>2017-08-27T14:24:20Z</time>
      </trkpt>
      <trkpt lat="49.19032" lon="1.91346">
        <ele>85</ele>
        <time>2017-08-27T14:24:56Z</time>
      </trkpt>
      <trkpt lat="49.19031" lon="1.91382">
        <ele>83</ele>
        <time>2017-08-27T14:25:11Z</time>
      </trkpt>
      <trkpt lat="49.19017" lon="1.91448">
        <ele>80</ele>
        <time>2017-08-27T14:25:45Z</time>
      </trkpt>
      <trkpt lat="49.18991" lon="1.91504">
        <ele>78</ele>
        <time>2017-08-27T14:26:25Z</time>
      </trkpt>
      <trkpt lat="49.18974" lon="1.91529">
        <ele>77</ele>
        <time>2017-08-27T14:26:50Z</time>
      </trkpt>
      <trkpt lat="49.18963" lon="1.91546">
        <ele>81</ele>
        <time>2017-08-27T14:28:28Z</time>
      </trkpt>
      <trkpt lat="49.18941" lon="1.91554">
        <ele>83</ele>
        <time>2017-08-27T14:30:47Z</time>
      </trkpt>
      <trkpt lat="49.18901" lon="1.91591">
        <ele>86</ele>
        <time>2017-08-27T14:31:24Z</time>
      </trkpt>
      <trkpt lat="49.18858" lon="1.91619">
        <ele>88</ele>
        <time>2017-08-27T14:32:06Z</time>
      </trkpt>
      <trkpt lat="49.18841" lon="1.91645">
        <ele>89</ele>
        <time>2017-08-27T14:32:28Z</time>
      </trkpt>
      <trkpt lat="49.18822" lon="1.91663">
        <ele>90</ele>
        <time>2017-08-27T14:32:42Z</time>
      </trkpt>
      <trkpt lat="49.18791" lon="1.91714">
        <ele>92</ele>
        <time>2017-08-27T14:33:25Z</time>
      </trkpt>
      <trkpt lat="49.18754" lon="1.91759">
        <ele>95</ele>
        <time>2017-08-27T14:33:56Z</time>
      </trkpt>
      <trkpt lat="49.18739" lon="1.91788">
        <ele>96</ele>
        <time>2017-08-27T14:34:15Z</time>
      </trkpt>
      <trkpt lat="49.18717" lon="1.91802">
        <ele>97</ele>
        <time>2017-08-27T14:34:34Z</time>
      </trkpt>
      <trkpt lat="49.18695" lon="1.91794">
        <ele>97</ele>
        <time>2017-08-27T14:34:51Z</time>
      </trkpt>
      <trkpt lat="49.18674" lon="1.91808">
        <ele>98</ele>
        <time>2017-08-27T14:35:07Z</time>
      </trkpt>
      <trkpt lat="49.18639" lon="1.91855">
        <ele>99</ele>
        <time>2017-08-27T14:35:42Z</time>
      </trkpt>
      <trkpt lat="49.18582" lon="1.91917">
        <ele>100</ele>
        <time>2017-08-27T14:36:32Z</time>
      </trkpt>
      <trkpt lat="49.18546" lon="1.91967">
        <ele>99</ele>
        <time>2017-08-27T14:37:03Z</time>
      </trkpt>
      <trkpt lat="49.18521" lon="1.92027">
        <ele>98</ele>
        <time>2017-08-27T14:37:38Z</time>
      </trkpt>
      <trkpt lat="49.18492" lon="1.92086">
        <ele>97</ele>
        <time>2017-08-27T14:38:11Z</time>
      </trkpt>
      <trkpt lat="49.18467" lon="1.92146">
        <ele>96</ele>
        <time>2017-08-27T14:38:46Z</time>
      </trkpt>
      <trkpt lat="49.18438" lon="1.92205">
        <ele>95</ele>
        <time>2017-08-27T14:39:16Z</time>
      </trkpt>
      <trkpt lat="49.18401" lon="1.92247">
        <ele>94</ele>
        <time>2017-08-27T14:39:49Z</time>
      </trkpt>
      <trkpt lat="49.18365" lon="1.92289">
        <ele>94</ele>
        <time>2017-08-27T14:40:21Z</time>
      </trkpt>
      <trkpt lat="49.18348" lon="1.92312">
        <ele>94</ele>
        <time>2017-08-27T14:40:38Z</time>
      </trkpt>
      <trkpt lat="49.18337" lon="1.92343">
        <ele>95</ele>
        <time>2017-08-27T14:40:55Z</time>
      </trkpt>
      <trkpt lat="49.18306" lon="1.92394">
        <ele>96</ele>
        <time>2017-08-27T14:41:27Z</time>
      </trkpt>
      <trkpt lat="49.18271" lon="1.92438">
        <ele>96</ele>
        <time>2017-08-27T14:42:01Z</time>
      </trkpt>
      <trkpt lat="49.18228" lon="1.92472">
        <ele>96</ele>
        <time>2017-08-27T14:42:35Z</time>
      </trkpt>
      <trkpt lat="49.1819" lon="1.92514">
        <ele>96</ele>
        <time>2017-08-27T14:43:11Z</time>
      </trkpt>
      <trkpt lat="49.18154" lon="1.9256">
        <ele>95</ele>
        <time>2017-08-27T14:43:44Z</time>
      </trkpt>
      <trkpt lat="49.1813" lon="1.92623">
        <ele>95</ele>
        <time>2017-08-27T14:44:18Z</time>
      </trkpt>
      <trkpt lat="49.18113" lon="1.92689">
        <ele>94</ele>
        <time>2017-08-27T14:44:52Z</time>
      </trkpt>
      <trkpt lat="49.18098" lon="1.92757">
        <ele>93</ele>
        <time>2017-08-27T14:45:27Z</time>
      </trkpt>
      <trkpt lat="49.1808" lon="1.92823">
        <ele>92</ele>
        <time>2017-08-27T14:46:01Z</time>
      </trkpt>
      <trkpt lat="49.18044" lon="1.92867">
        <ele>92</ele>
        <time>2017-08-27T14:46:34Z</time>
      </trkpt>
      <trkpt lat="49.1798" lon="1.92907">
        <ele>90</ele>
        <time>2017-08-27T14:47:22Z</time>
      </trkpt>
      <trkpt lat="49.17936" lon="1.92929">
        <ele>90</ele>
        <time>2017-08-27T14:47:56Z</time>
      </trkpt>
      <trkpt lat="49.17913" lon="1.92933">
        <ele>89</ele>
        <time>2017-08-27T14:48:13Z</time>
      </trkpt>
      <trkpt lat="49.17868" lon="1.92916">
        <ele>87</ele>
        <time>2017-08-27T14:49:17Z</time>
      </trkpt>
      <trkpt lat="49.17845" lon="1.92912">
        <ele>85</ele>
        <time>2017-08-27T14:49:35Z</time>
      </trkpt>
      <trkpt lat="49.17822" lon="1.92905">
        <ele>83</ele>
        <time>2017-08-27T14:50:15Z</time>
      </trkpt>
      <trkpt lat="49.17777" lon="1.92883">
        <ele>80</ele>
        <time>2017-08-27T14:50:54Z</time>
      </trkpt>
      <trkpt lat="49.1774" lon="1.92872">
        <ele>77</ele>
        <time>2017-08-27T14:51:21Z</time>
      </trkpt>
      <trkpt lat="49.17695" lon="1.92879">
        <ele>74</ele>
        <time>2017-08-27T14:52:00Z</time>
      </trkpt>
      <trkpt lat="49.17671" lon="1.92886">
        <ele>73</ele>
        <time>2017-08-27T14:52:18Z</time>
      </trkpt>
      <trkpt lat="49.17629" lon="1.9291">
        <ele>72</ele>
        <time>2017-08-27T14:52:54Z</time>
      </trkpt>
      <trkpt lat="49.17582" lon="1.92913">
        <ele>71</ele>
        <time>2017-08-27T14:53:29Z</time>
      </trkpt>
      <trkpt lat="49.17556" lon="1.92933">
        <ele>71</ele>
        <time>2017-08-27T14:54:08Z</time>
      </trkpt>
      <trkpt lat="49.17554" lon="1.92969">
        <ele>71</ele>
        <time>2017-08-27T14:54:28Z</time>
      </trkpt>
      <trkpt lat="49.17549" lon="1.93004">
        <ele>70</ele>
        <time>2017-08-27T14:54:45Z</time>
      </trkpt>
      <trkpt lat="49.17543" lon="1.93039">
        <ele>70</ele>
        <time>2017-08-27T14:55:03Z</time>
      </trkpt>
      <trkpt lat="49.17558" lon="1.93067">
        <ele>70</ele>
        <time>2017-08-27T14:55:30Z</time>
      </trkpt>
      <trkpt lat="49.17556" lon="1.93074">
        <ele>67</ele>
        <time>2017-08-27T14:57:15Z</time>
      </trkpt>
      <trkpt lat="49.17544" lon="1.93065">
        <ele>67</ele>
        <time>2017-08-27T14:57:34Z</time>
      </trkpt>
      <trkpt lat="49.17535" lon="1.93099">
        <ele>68</ele>
        <time>2017-08-27T14:58:28Z</time>
      </trkpt>
      <trkpt lat="49.17514" lon="1.93117">
        <ele>68</ele>
        <time>2017-08-27T14:58:48Z</time>
      </trkpt>
      <trkpt lat="49.1748" lon="1.93163">
        <ele>68</ele>
        <time>2017-08-27T14:59:15Z</time>
      </trkpt>
      <trkpt lat="49.17459" lon="1.93179">
        <ele>68</ele>
        <time>2017-08-27T14:59:31Z</time>
      </trkpt>
      <trkpt lat="49.17436" lon="1.9318">
        <ele>68</ele>
        <time>2017-08-27T14:59:50Z</time>
      </trkpt>
      <trkpt lat="49.17414" lon="1.93191">
        <ele>68</ele>
        <time>2017-08-27T15:00:10Z</time>
      </trkpt>
      <trkpt lat="49.1739" lon="1.93197">
        <ele>68</ele>
        <time>2017-08-27T15:00:55Z</time>
      </trkpt>
      <trkpt lat="49.17366" lon="1.9319">
        <ele>68</ele>
        <time>2017-08-27T15:01:18Z</time>
      </trkpt>
      <trkpt lat="49.17321" lon="1.93207">
        <ele>68</ele>
        <time>2017-08-27T15:01:50Z</time>
      </trkpt>
      <trkpt lat="49.17279" lon="1.93239">
        <ele>67</ele>
        <time>2017-08-27T15:02:21Z</time>
      </trkpt>
      <trkpt lat="49.17235" lon="1.9326">
        <ele>68</ele>
        <time>2017-08-27T15:02:52Z</time>
      </trkpt>
      <trkpt lat="49.1719" lon="1.93284">
        <ele>68</ele>
        <time>2017-08-27T15:03:28Z</time>
      </trkpt>
      <trkpt lat="49.1717" lon="1.93299">
        <ele>68</ele>
        <time>2017-08-27T15:03:45Z</time>
      </trkpt>
      <trkpt lat="49.17126" lon="1.93313">
        <ele>68</ele>
        <time>2017-08-27T15:04:16Z</time>
      </trkpt>
      <trkpt lat="49.17084" lon="1.93288">
        <ele>68</ele>
        <time>2017-08-27T15:04:53Z</time>
      </trkpt>
      <trkpt lat="49.1706" lon="1.93283">
        <ele>68</ele>
        <time>2017-08-27T15:05:10Z</time>
      </trkpt>
      <trkpt lat="49.17039" lon="1.93268">
        <ele>68</ele>
        <time>2017-08-27T15:05:28Z</time>
      </trkpt>
      <trkpt lat="49.17016" lon="1.93256">
        <ele>68</ele>
        <time>2017-08-27T15:05:44Z</time>
      </trkpt>
      <trkpt lat="49.16995" lon="1.93242">
        <ele>69</ele>
        <time>2017-08-27T15:06:04Z</time>
      </trkpt>
      <trkpt lat="49.16947" lon="1.93242">
        <ele>70</ele>
        <time>2017-08-27T15:06:51Z</time>
      </trkpt>
      <trkpt lat="49.16923" lon="1.93246">
        <ele>70</ele>
        <time>2017-08-27T15:07:12Z</time>
      </trkpt>
      <trkpt lat="49.16875" lon="1.93272">
        <ele>73</ele>
        <time>2017-08-27T15:07:51Z</time>
      </trkpt>
      <trkpt lat="49.16833" lon="1.93301">
        <ele>76</ele>
        <time>2017-08-27T15:08:24Z</time>
      </trkpt>
      <trkpt lat="49.16812" lon="1.93317">
        <ele>79</ele>
        <time>2017-08-27T15:08:40Z</time>
      </trkpt>
      <trkpt lat="49.16766" lon="1.93321">
        <ele>82</ele>
        <time>2017-08-27T15:09:17Z</time>
      </trkpt>
      <trkpt lat="49.1672" lon="1.93316">
        <ele>84</ele>
        <time>2017-08-27T15:09:57Z</time>
      </trkpt>
      <trkpt lat="49.1667" lon="1.9333">
        <ele>85</ele>
        <time>2017-08-27T15:10:33Z</time>
      </trkpt>
      <trkpt lat="49.16627" lon="1.93354">
        <ele>86</ele>
        <time>2017-08-27T15:11:04Z</time>
      </trkpt>
      <trkpt lat="49.16608" lon="1.93378">
        <ele>86</ele>
        <time>2017-08-27T15:11:22Z</time>
      </trkpt>
      <trkpt lat="49.16544" lon="1.93417">
        <ele>86</ele>
        <time>2017-08-27T15:12:07Z</time>
      </trkpt>
      <trkpt lat="49.16499" lon="1.93435">
        <ele>85</ele>
        <time>2017-08-27T15:12:39Z</time>
      </trkpt>
      <trkpt lat="49.16451" lon="1.93436">
        <ele>84</ele>
        <time>2017-08-27T15:13:07Z</time>
      </trkpt>
      <trkpt lat="49.16404" lon="1.93447">
        <ele>82</ele>
        <time>2017-08-27T15:13:46Z</time>
      </trkpt>
      <trkpt lat="49.16382" lon="1.93452">
        <ele>82</ele>
        <time>2017-08-27T15:14:02Z</time>
      </trkpt>
      <trkpt lat="49.16341" lon="1.93481">
        <ele>79</ele>
        <time>2017-08-27T15:14:33Z</time>
      </trkpt>
      <trkpt lat="49.16297" lon="1.93502">
        <ele>77</ele>
        <time>2017-08-27T15:15:04Z</time>
      </trkpt>
      <trkpt lat="49.16257" lon="1.93538">
        <ele>74</ele>
        <time>2017-08-27T15:15:38Z</time>
      </trkpt>
      <trkpt lat="49.16267" lon="1.93571">
        <ele>72</ele>
        <time>2017-08-27T15:16:02Z</time>
      </trkpt>
      <trkpt lat="49.16279" lon="1.9364">
        <ele>69</ele>
        <time>2017-08-27T15:16:31Z</time>
      </trkpt>
      <trkpt lat="49.16262" lon="1.93664">
        <ele>69</ele>
        <time>2017-08-27T15:16:56Z</time>
      </trkpt>
      <trkpt lat="49.16245" lon="1.93687">
        <ele>69</ele>
        <time>2017-08-27T15:22:35Z</time>
      </trkpt>
    </trkseg>
  </trk>
</gpx>